| time (UTC) | temp F | wind direction | speed MPH | gust MPH | rain 1hr in | rain 24hr in | rain mn in | humidity % | barometer mb |
| 20260906183046 | 85 | 0.0 | 0.0 | 0.00 | 0.00 | 0.00 | 53 | 1019.3 | |
| 20260906182035 | 85 | 0.0 | 0.0 | 0.00 | 0.00 | 0.00 | 54 | 1019.2 | |
| 20260906181035 | 86 | 0.0 | 0.0 | 0.00 | 0.00 | 0.00 | 48 | 1019.1 | |
| 20260906180035 | 87 | 0.0 | 0.0 | 0.00 | 0.00 | 0.00 | 47 | 1019.0 | |
| 20260906175035 | 88 | 0.0 | 0.0 | 0.00 | 0.00 | 0.00 | 45 | 1018.8 | |
| 20260906174040 | 89 | 0.0 | 0.0 | 0.00 | 0.00 | 0.00 | 44 | 1018.5 | |
| 20260906173035 | 91 | 0.0 | 0.0 | 0.00 | 0.00 | 0.00 | 40 | 1018.4 | |
| 20260906172040 | 93 | 0.0 | 0.0 | 0.00 | 0.00 | 0.00 | 36 | 1018.2 | |
| 20260906171035 | 98 | 0.0 | 0.0 | 0.00 | 0.00 | 0.00 | 30 | 1017.9 | |
| 20260906170035 | 109 | 0.0 | 0.0 | 0.00 | 0.00 | 0.00 | 24 | 1016.8 | |
| 20260906165035 | 97 | 0.0 | 0.0 | 0.00 | 0.00 | 0.00 | 34 | 1017.9 | |
| 20260906164035 | 100 | 0.0 | 0.0 | 0.00 | 0.00 | 0.00 | 29 | 1017.5 | |
| 20260906163035 | 111 | 0.0 | 0.0 | 0.00 | 0.00 | 0.00 | 21 | 1016.5 | |
| 20260906162040 | 110 | 0.0 | 0.0 | 0.00 | 0.00 | 0.00 | 22 | 1016.7 | |
| 20260906161035 | 115 | 0.0 | 0.0 | 0.00 | 0.00 | 0.00 | 18 | 1016.3 | |
| 20260906160035 | 115 | 0.0 | 0.0 | 0.00 | 0.00 | 0.00 | 17 | 1016.2 | |
| 20260906155035 | 104 | 0.0 | 0.0 | 0.00 | 0.00 | 0.00 | 25 | 1017.2 | |
| 20260906154035 | 118 | 0.0 | 0.0 | 0.00 | 0.00 | 0.00 | 16 | 1016.0 | |
| 20260906153040 | 116 | 0.0 | 0.0 | 0.00 | 0.00 | 0.00 | 18 | 1016.2 | |
| 20260906152035 | 126 | 0.0 | 0.0 | 0.00 | 0.00 | 0.00 | 13 | 1015.4 | |
| 20260906151035 | 129 | 0.0 | 0.0 | 0.00 | 0.00 | 0.00 | 13 | 1015.3 | |
| 20260906150035 | 126 | 0.0 | 0.0 | 0.00 | 0.00 | 0.00 | 14 | 1015.7 | |
| 20260906145035 | 127 | 0.0 | 0.0 | 0.00 | 0.00 | 0.00 | 13 | 1015.6 | |
| 20260906144035 | 125 | 0.0 | 0.0 | 0.00 | 0.00 | 0.00 | 14 | 1015.8 | |
| 20260906143040 | 123 | 0.0 | 0.0 | 0.00 | 0.00 | 0.00 | 15 | 1015.9 | |
| 20260906142035 | 118 | 0.0 | 0.0 | 0.00 | 0.00 | 0.00 | 17 | 1016.3 | |
| 20260906141035 | 102 | 0.0 | 0.0 | 0.00 | 0.00 | 0.00 | 28 | 1017.7 | |
| 20260906140035 | 99 | 0.0 | 0.0 | 0.00 | 0.00 | 0.00 | 27 | 1018.0 | |
| 20260906135035 | 100 | 0.0 | 0.0 | 0.00 | 0.00 | 0.00 | 28 | 1018.0 | |
| 20260906134035 | 101 | 0.0 | 0.0 | 0.00 | 0.00 | 0.00 | 27 | 1018.0 | |
| 20260906133040 | 101 | 0.0 | 0.0 | 0.00 | 0.00 | 0.00 | 28 | 1017.9 | |
| 20260906132035 | 101 | 0.0 | 0.0 | 0.00 | 0.00 | 0.00 | 28 | 1018.0 | |
| 20260906131035 | 100 | 0.0 | 0.0 | 0.00 | 0.00 | 0.00 | 30 | 1018.1 | |
| 20260906130040 | 101 | 0.0 | 0.0 | 0.00 | 0.00 | 0.00 | 28 | 1018.0 | |
| 20260906125035 | 100 | 0.0 | 0.0 | 0.00 | 0.00 | 0.00 | 26 | 1018.2 | |
| 20260906124035 | 99 | 0.0 | 0.0 | 0.00 | 0.00 | 0.00 | 26 | 1018.3 | |
| 20260906123035 | 100 | 0.0 | 0.0 | 0.00 | 0.00 | 0.00 | 27 | 1018.3 | |
| 20260906122040 | 100 | 0.0 | 0.0 | 0.00 | 0.00 | 0.00 | 26 | 1018.3 | |
| 20260906121035 | 98 | 0.0 | 0.0 | 0.00 | 0.00 | 0.00 | 28 | 1018.6 | |
| 20260906120035 | 99 | 0.0 | 0.0 | 0.00 | 0.00 | 0.00 | 26 | 1018.5 | |
| 20260906115045 | 100 | 0.0 | 0.0 | 0.00 | 0.00 | 0.00 | 26 | 1018.3 | |
| 20260906114035 | 99 | 0.0 | 0.0 | 0.00 | 0.00 | 0.00 | 25 | 1018.5 | |
| 20260906113035 | 99 | 0.0 | 0.0 | 0.00 | 0.00 | 0.00 | 25 | 1018.6 | |
| 20260906112035 | 98 | 0.0 | 0.0 | 0.00 | 0.00 | 0.00 | 28 | 1018.8 | |
| 20260906111035 | 97 | 0.0 | 0.0 | 0.00 | 0.00 | 0.00 | 28 | 1019.0 | |
| 20260906110035 | 96 | 0.0 | 0.0 | 0.00 | 0.00 | 0.00 | 28 | 1019.1 | |
| 20260906105040 | 95 | 0.0 | 0.0 | 0.00 | 0.00 | 0.00 | 30 | 1019.2 | |
| 20260906104035 | 95 | 0.0 | 0.0 | 0.00 | 0.00 | 0.00 | 29 | 1019.3 | |
| 20260906103035 | 94 | 0.0 | 0.0 | 0.00 | 0.00 | 0.00 | 29 | 1019.4 | |
| 20260906102035 | 94 | 0.0 | 0.0 | 0.00 | 0.00 | 0.00 | 30 | 1019.6 | |
| 20260906101035 | 93 | 0.0 | 0.0 | 0.00 | 0.00 | 0.00 | 31 | 1019.7 | |
| 20260906100040 | 92 | 0.0 | 0.0 | 0.00 | 0.00 | 0.00 | 33 | 1019.8 | |
| 20260906095035 | 92 | 0.0 | 0.0 | 0.00 | 0.00 | 0.00 | 32 | 1019.9 | |
| 20260906094035 | 91 | 0.0 | 0.0 | 0.00 | 0.00 | 0.00 | 37 | 1020.0 | |
| 20260906093035 | 89 | 0.0 | 0.0 | 0.00 | 0.00 | 0.00 | 41 | 1020.2 | |
| 20260906092035 | 87 | 0.0 | 0.0 | 0.00 | 0.00 | 0.00 | 44 | 1020.4 | |
| 20260906091040 | 85 | 0.0 | 0.0 | 0.00 | 0.00 | 0.00 | 47 | 1020.5 | |
| 20260906090040 | 84 | 0.0 | 0.0 | 0.00 | 0.00 | 0.00 | 49 | 1020.7 | |
| 20260906085035 | 83 | 0.0 | 0.0 | 0.00 | 0.00 | 0.00 | 52 | 1020.8 | |
| 20260906084035 | 82 | 0.0 | 0.0 | 0.00 | 0.00 | 0.00 | 53 | 1020.9 | |
| 20260906083035 | 80 | 0.0 | 0.0 | 0.00 | 0.00 | 0.00 | 55 | 1021.0 | |
| 20260906082035 | 78 | 0.0 | 0.0 | 0.00 | 0.00 | 0.00 | 58 | 1021.2 | |
| 20260906081035 | 77 | 0.0 | 0.0 | 0.00 | 0.00 | 0.00 | 63 | 1021.3 | |
| 20260906080035 | 76 | 0.0 | 0.0 | 0.00 | 0.00 | 0.00 | 63 | 1021.3 | |
| 20260906075040 | 75 | 0.0 | 0.0 | 0.00 | 0.00 | 0.00 | 66 | 1021.3 | |
| 20260906074035 | 74 | 0.0 | 0.0 | 0.00 | 0.00 | 0.00 | 74 | 1021.6 | |
| 20260906073040 | 74 | 0.0 | 0.0 | 0.00 | 0.00 | 0.00 | 71 | 1021.6 | |
| 20260906072035 | 73 | 0.0 | 0.0 | 0.00 | 0.00 | 0.00 | 73 | 1021.7 | |
| 20260906071035 | 73 | 0.0 | 0.0 | 0.00 | 0.00 | 0.00 | 78 | 1021.6 | |
| 20260906070040 | 72 | 0.0 | 0.0 | 0.00 | 0.00 | 0.00 | 81 | 1021.7 | |
| 20260906065035 | 71 | 0.0 | 0.0 | 0.00 | 0.00 | 0.00 | 86 | 1021.8 | |
| 20260906064040 | 71 | 0.0 | 0.0 | 0.00 | 0.00 | 0.00 | 88 | 1021.6 | |
| 20260906063035 | 71 | 0.0 | 0.0 | 0.00 | 0.00 | 0.00 | 95 | 1021.6 | |
| 20260906062035 | 70 | 0.0 | 0.0 | 0.00 | 0.00 | 0.00 | 89 | 1021.7 | |
| 20260906061040 | 70 | 0.0 | 0.0 | 0.00 | 0.00 | 0.00 | 91 | 1021.5 | |
| 20260906060035 | 69 | 0.0 | 0.0 | 0.00 | 0.00 | 0.00 | 89 | 1021.6 | |
| 20260906055035 | 69 | 0.0 | 0.0 | 0.00 | 0.00 | 0.00 | 91 | 1021.5 | |
| 20260906054035 | 69 | 0.0 | 0.0 | 0.00 | 0.00 | 0.00 | 98 | 1021.4 | |
| 20260906053035 | 68 | 0.0 | 0.0 | 0.00 | 0.00 | 0.00 | 89 | 1021.5 | |
| 20260906052046 | 68 | 0.0 | 0.0 | 0.00 | 0.00 | 0.00 | 96 | 1021.6 | |
| 20260906051035 | 68 | 0.0 | 0.0 | 0.00 | 0.00 | 0.00 | 91 | 1021.4 | |
| 20260906050035 | 69 | 0.0 | 0.0 | 0.00 | 0.00 | 0.00 | 98 | 1021.3 | |
| 20260906045035 | 70 | 0.0 | 0.0 | 0.00 | 0.00 | 0.00 | 90 | 1021.2 | |
| 20260906044035 | 69 | 0.0 | 0.0 | 0.00 | 0.00 | 0.00 | 87 | 1021.3 | |
| 20260906043035 | 69 | 0.0 | 0.0 | 0.00 | 0.00 | 0.00 | 88 | 1021.4 | |
| 20260906042040 | 69 | 0.0 | 0.0 | 0.00 | 0.00 | 0.00 | 87 | 1021.4 | |
| 20260906041035 | 69 | 0.0 | 0.0 | 0.00 | 0.00 | 0.00 | 85 | 1021.4 | |
| 20260906040040 | 69 | 0.0 | 0.0 | 0.00 | 0.00 | 0.00 | 90 | 1021.5 | |
| 20260906035035 | 69 | 0.0 | 0.0 | 0.00 | 0.00 | 0.00 | 87 | 1021.5 | |
| 20260906034035 | 69 | 0.0 | 0.0 | 0.00 | 0.00 | 0.00 | 86 | 1021.4 | |
| 20260906033035 | 69 | 0.0 | 0.0 | 0.00 | 0.00 | 0.00 | 84 | 1021.5 | |
| 20260906032035 | 70 | 0.0 | 0.0 | 0.00 | 0.00 | 0.00 | 83 | 1021.6 | |
| 20260906031035 | 70 | 0.0 | 0.0 | 0.00 | 0.00 | 0.00 | 82 | 1021.6 | |
| 20260906030035 | 70 | 0.0 | 0.0 | 0.00 | 0.00 | 0.00 | 84 | 1021.5 | |
| 20260906025035 | 70 | 0.0 | 0.0 | 0.00 | 0.00 | 0.00 | 83 | 1021.6 | |
| 20260906024035 | 70 | 0.0 | 0.0 | 0.00 | 0.00 | 0.00 | 82 | 1021.5 | |
| 20260906023035 | 71 | 0.0 | 0.0 | 0.00 | 0.00 | 0.00 | 89 | 1021.5 | |
| 20260906022040 | 71 | 0.0 | 0.0 | 0.00 | 0.00 | 0.00 | 82 | 1021.5 | |
| 20260906021035 | 71 | 0.0 | 0.0 | 0.00 | 0.00 | 0.00 | 85 | 1021.7 | |
| 20260906020035 | 71 | 0.0 | 0.0 | 0.00 | 0.00 | 0.00 | 84 | 1021.6 | |
| 20260906015035 | 71 | 0.0 | 0.0 | 0.00 | 0.00 | 0.00 | 82 | 1021.6 | |
| 20260906014035 | 71 | 0.0 | 0.0 | 0.00 | 0.00 | 0.00 | 83 | 1021.5 | |
| 20260906013035 | 72 | 0.0 | 0.0 | 0.00 | 0.00 | 0.00 | 83 | 1021.5 | |
| 20260906012035 | 72 | 0.0 | 0.0 | 0.00 | 0.00 | 0.00 | 82 | 1021.5 | |
| 20260906011040 | 73 | 0.0 | 0.0 | 0.00 | 0.00 | 0.00 | 82 | 1021.4 | |
| 20260906010035 | 74 | 0.0 | 0.0 | 0.00 | 0.00 | 0.00 | 90 | 1021.3 | |
| 20260906005035 | 74 | 0.0 | 0.0 | 0.00 | 0.00 | 0.00 | 92 | 1021.3 | |
| 20260906004035 | 73 | 0.0 | 0.0 | 0.00 | 0.00 | 0.00 | 95 | 1021.4 | |
| 20260906003035 | 74 | 0.0 | 0.0 | 0.00 | 0.00 | 0.00 | 92 | 1021.5 | |
| 20260906002035 | 73 | 0.0 | 0.0 | 0.00 | 0.00 | 0.00 | 95 | 1021.7 | |
| 20260906001035 | 74 | 0.0 | 0.0 | 0.00 | 0.00 | 0.00 | 92 | 1021.6 | |
| 20260906000035 | 74 | 0.0 | 0.0 | 0.00 | 0.00 | 0.00 | 88 | 1021.7 | |
| 20260905235035 | 75 | 0.0 | 0.0 | 0.00 | 0.00 | 0.00 | 83 | 1021.5 | |
| 20260905234035 | 76 | 0.0 | 0.0 | 0.00 | 0.00 | 0.00 | 81 | 1021.4 | |
| 20260905233040 | 76 | 0.0 | 0.0 | 0.00 | 0.00 | 0.00 | 84 | 1021.5 | |
| 20260905232035 | 76 | 0.0 | 0.0 | 0.00 | 0.00 | 0.00 | 77 | 1021.6 | |
| 20260905231035 | 77 | 0.0 | 0.0 | 0.00 | 0.00 | 0.00 | 81 | 1021.5 | |
| 20260905230035 | 77 | 0.0 | 0.0 | 0.00 | 0.00 | 0.00 | 76 | 1021.6 | |
| 20260905225035 | 78 | 0.0 | 0.0 | 0.00 | 0.00 | 0.00 | 72 | 1021.5 | |
| 20260905224035 | 78 | 0.0 | 0.0 | 0.00 | 0.00 | 0.00 | 72 | 1021.4 | |
| 20260905223035 | 78 | 0.0 | 0.0 | 0.00 | 0.00 | 0.00 | 67 | 1021.4 | |
| 20260905222040 | 78 | 0.0 | 0.0 | 0.00 | 0.00 | 0.00 | 71 | 1021.4 | |
| 20260905221035 | 78 | 0.0 | 0.0 | 0.00 | 0.00 | 0.00 | 66 | 1021.4 | |
| 20260905220035 | 78 | 0.0 | 0.0 | 0.00 | 0.00 | 0.00 | 65 | 1021.4 | |
| 20260905215035 | 78 | 0.0 | 0.0 | 0.00 | 0.00 | 0.00 | 65 | 1021.3 | |
| 20260905214035 | 77 | 0.0 | 0.0 | 0.00 | 0.00 | 0.00 | 65 | 1021.5 | |
| 20260905213040 | 78 | 0.0 | 0.0 | 0.00 | 0.00 | 0.00 | 62 | 1021.3 | |
| 20260905212035 | 79 | 0.0 | 0.0 | 0.00 | 0.00 | 0.00 | 64 | 1021.3 | |
| 20260905211035 | 78 | 0.0 | 0.0 | 0.00 | 0.00 | 0.00 | 62 | 1021.5 | |
| 20260905210035 | 78 | 0.0 | 0.0 | 0.00 | 0.00 | 0.00 | 60 | 1021.4 | |
| 20260905205040 | 79 | 0.0 | 0.0 | 0.00 | 0.00 | 0.00 | 66 | 1021.4 | |
| 20260905204035 | 79 | 0.0 | 0.0 | 0.00 | 0.00 | 0.00 | 64 | 1021.4 | |
| 20260905203035 | 80 | 0.0 | 0.0 | 0.00 | 0.00 | 0.00 | 71 | 1021.4 | |
| 20260905202035 | 82 | 0.0 | 0.0 | 0.00 | 0.00 | 0.00 | 66 | 1021.1 | |
| 20260905201035 | 82 | 0.0 | 0.0 | 0.00 | 0.00 | 0.00 | 70 | 1021.1 | |
| 20260905200040 | 82 | 0.0 | 0.0 | 0.00 | 0.00 | 0.00 | 68 | 1020.9 | |
| 20260905195035 | 82 | 0.0 | 0.0 | 0.00 | 0.00 | 0.00 | 64 | 1020.8 | |
| 20260905194035 | 83 | 0.0 | 0.0 | 0.00 | 0.00 | 0.00 | 68 | 1020.7 | |
| 20260905193035 | 83 | 0.0 | 0.0 | 0.00 | 0.00 | 0.00 | 67 | 1020.7 | |
| 20260905192046 | 83 | 0.0 | 0.0 | 0.00 | 0.00 | 0.00 | 67 | 1020.5 | |
| 20260905191035 | 83 | 0.0 | 0.0 | 0.00 | 0.00 | 0.00 | 67 | 1020.5 | |
| 20260905190035 | 83 | 0.0 | 0.0 | 0.00 | 0.00 | 0.00 | 67 | 1020.5 | |
| 20260905185035 | 83 | 0.0 | 0.0 | 0.00 | 0.00 | 0.00 | 65 | 1020.4 | |
| 20260905184045 | 84 | 0.0 | 0.0 | 0.00 | 0.00 | 0.00 | 64 | 1020.3 |